Terminal Aerodrome Forecast
Issued by NWS Charleston, WV

Current Version | Previous Version | Text Only | Print | Product List | Glossary Off
Versions: 1 2 3 4 5 6 7 8 9 10 11 12 13 14 15 16 17 18 19 20 21 22 23 24 25 26 27

819
FTUS41 KRLX 221134
TAFBKW
TAF
KBKW 221134Z 2212/2312 36003KT 6SM -SHRA OVC006
     FM221500 VRB03KT 5SM -SHRA OVC007
     FM221800 00000KT 3SM +SHRA OVC006
      TEMPO 2219/2221 2SM +SHRA OVC003
     FM222100 36010KT 3SM +SHRA OVC007
     FM230000 03005KT 6SM -SHRA OVC008=

USA.gov is the U.S. government's official web portal to all federal, state and local government web resources and services.